createdAt,value
2023-02-23T00:01:40.501Z,61.07
2023-02-23T00:04:07.845Z,57.77
2023-02-23T00:06:36.072Z,56.30
2023-02-23T00:09:07.713Z,61.27
2023-02-23T00:11:35.067Z,60.43
2023-02-23T00:14:03.439Z,63.57
2023-02-23T00:16:30.870Z,57.30
2023-02-23T00:19:00.623Z,64.43
2023-02-23T00:21:33.808Z,61.20
2023-02-23T00:24:06.281Z,62.93
2023-02-23T00:26:35.264Z,60.53
2023-02-23T00:29:06.936Z,63.80
2023-02-23T00:31:34.312Z,60.97
2023-02-23T00:34:02.910Z,61.63
2023-02-23T00:36:31.660Z,56.83
2023-02-23T00:39:00.785Z,52.87
2023-02-23T00:41:28.725Z,59.23
2023-02-23T00:43:59.918Z,60.57
2023-02-23T00:46:31.049Z,65.97
2023-02-23T00:48:59.699Z,72.07
2023-02-23T00:51:31.044Z,63.37
2023-02-23T00:53:59.444Z,63.43
2023-02-23T00:56:26.973Z,63.40
2023-02-23T00:58:54.688Z,67.43
2023-02-23T01:01:22.564Z,58.73
2023-02-23T01:03:49.966Z,63.50
2023-02-23T01:06:17.698Z,62.83
2023-02-23T01:08:46.400Z,61.83
2023-02-23T01:11:15.216Z,71.07
2023-02-23T01:13:44.166Z,66.07
2023-02-23T01:16:15.805Z,57.20
2023-02-23T01:18:44.679Z,58.77
2023-02-23T01:21:17.896Z,70.27
2023-02-23T01:23:45.288Z,64.40
2023-02-23T01:26:19.544Z,68.37
2023-02-23T01:28:57.135Z,62.63
2023-02-23T01:31:24.794Z,62.07
2023-02-23T01:33:55.910Z,62.63
2023-02-23T01:36:25.610Z,63.43
2023-02-23T01:38:57.107Z,64.83
2023-02-23T01:41:26.840Z,68.70
2023-02-23T01:43:58.756Z,67.40
2023-02-23T01:46:25.903Z,71.97
2023-02-23T01:48:56.401Z,64.97
2023-02-23T01:51:26.626Z,67.23
2023-02-23T01:54:01.289Z,62.33
2023-02-23T01:56:33.607Z,68.47
2023-02-23T01:59:04.327Z,64.57
2023-02-23T02:01:31.944Z,68.90
2023-02-23T02:04:05.509Z,72.63
2023-02-23T02:06:33.086Z,70.37
2023-02-23T02:09:06.865Z,71.03
2023-02-23T02:11:39.329Z,69.33
2023-02-23T02:14:13.847Z,69.83
2023-02-23T02:17:02.334Z,70.73
2023-02-23T02:19:29.411Z,72.10
2023-02-23T02:22:00.573Z,67.80
2023-02-23T02:24:37.980Z,69.23
2023-02-23T02:27:05.130Z,71.77
2023-02-23T02:29:51.031Z,68.70
2023-02-23T02:32:33.732Z,71.37
2023-02-23T02:35:19.206Z,73.73
2023-02-23T02:37:56.962Z,79.73
2023-02-23T02:40:30.751Z,77.13
2023-02-23T02:43:00.631Z,79.97
2023-02-23T02:45:33.941Z,84.00
2023-02-23T02:48:14.175Z,87.17
2023-02-23T02:50:51.993Z,79.43
2023-02-23T02:53:23.684Z,80.03
2023-02-23T02:55:52.591Z,80.37
2023-02-23T02:58:19.730Z,77.57
2023-02-23T03:01:09.976Z,87.83
2023-02-23T03:04:00.162Z,83.37
2023-02-23T03:06:53.556Z,82.97
2023-02-23T03:09:47.185Z,79.03
2023-02-23T03:12:41.398Z,82.60
2023-02-23T03:15:27.317Z,81.57
2023-02-23T03:18:19.924Z,84.53
2023-02-23T03:21:09.595Z,87.17
2023-02-23T03:24:16.547Z,84.40
2023-02-23T03:27:02.400Z,83.93
2023-02-23T03:29:55.583Z,83.57
2023-02-23T03:32:57.256Z,80.23
2023-02-23T03:35:47.373Z,86.50
2023-02-23T03:38:49.404Z,82.13
2023-02-23T03:41:37.504Z,85.67
2023-02-23T03:44:27.123Z,83.07
2023-02-23T03:47:13.115Z,84.57
2023-02-23T03:49:59.561Z,82.60
2023-02-23T03:52:49.136Z,86.00
2023-02-23T03:55:39.924Z,93.33
2023-02-23T03:58:27.763Z,93.27
2023-02-23T04:01:15.348Z,96.87
2023-02-23T04:04:02.273Z,90.50
2023-02-23T04:06:50.733Z,103.37
2023-02-23T04:09:36.831Z,98.47
2023-02-23T04:12:41.468Z,104.87
2023-02-23T04:15:13.460Z,101.97
2023-02-23T04:17:40.939Z,108.80
2023-02-23T04:20:10.899Z,109.53
2023-02-23T04:22:38.079Z,101.67
2023-02-23T04:25:06.195Z,103.40
2023-02-23T04:27:33.288Z,108.70
2023-02-23T04:30:00.553Z,93.97
2023-02-23T04:32:27.745Z,99.93
2023-02-23T04:34:54.992Z,102.70
2023-02-23T04:37:22.124Z,102.57
2023-02-23T04:39:50.298Z,102.10
2023-02-23T04:42:18.352Z,103.50
2023-02-23T04:44:45.632Z,98.87
2023-02-23T04:47:13.027Z,103.93
2023-02-23T04:49:40.146Z,122.80
2023-02-23T04:52:07.340Z,110.33
2023-02-23T04:54:34.412Z,113.60
2023-02-23T04:57:01.509Z,111.77
2023-02-23T04:59:28.871Z,103.83
2023-02-23T05:01:56.019Z,99.00
2023-02-23T05:04:23.339Z,98.57
2023-02-23T05:06:50.459Z,112.10
2023-02-23T05:09:17.536Z,109.37
2023-02-23T05:11:44.673Z,109.13
2023-02-23T05:14:12.479Z,111.37
2023-02-23T05:16:40.175Z,109.40
2023-02-23T05:19:07.316Z,108.17
2023-02-23T05:21:34.402Z,114.07
2023-02-23T05:24:02.175Z,114.43
2023-02-23T05:26:29.275Z,122.53
2023-02-23T05:28:57.074Z,115.23
2023-02-23T05:31:24.911Z,102.47
2023-02-23T05:33:52.045Z,110.53
2023-02-23T05:36:20.078Z,108.90
2023-02-23T05:38:47.460Z,105.60
2023-02-23T05:41:15.794Z,118.17
2023-02-23T05:43:43.025Z,110.23
2023-02-23T05:46:17.278Z,112.37
2023-02-23T05:48:44.482Z,115.83
2023-02-23T05:51:12.720Z,111.93
2023-02-23T05:53:40.123Z,111.67
2023-02-23T05:56:08.132Z,126.23
2023-02-23T05:58:35.584Z,114.23
2023-02-23T06:01:02.666Z,119.17
2023-02-23T06:03:29.780Z,114.30
2023-02-23T06:05:57.846Z,121.10
2023-02-23T06:08:26.316Z,122.63
2023-02-23T06:10:53.706Z,114.03
2023-02-23T06:13:21.338Z,114.70
2023-02-23T06:15:49.533Z,111.87
2023-02-23T06:18:17.990Z,124.93
2023-02-23T06:20:46.543Z,127.13
2023-02-23T06:23:15.591Z,111.73
2023-02-23T06:25:43.718Z,111.57
2023-02-23T06:28:11.135Z,114.07
2023-02-23T06:30:38.988Z,111.87
2023-02-23T06:33:06.560Z,115.97
2023-02-23T06:35:34.516Z,115.53
2023-02-23T06:38:02.572Z,120.00
2023-02-23T06:40:30.684Z,121.57
2023-02-23T06:42:58.216Z,119.63
2023-02-23T06:45:25.356Z,122.70
2023-02-23T06:47:53.683Z,122.20
2023-02-23T06:50:21.356Z,121.13
2023-02-23T06:52:49.368Z,119.30
2023-02-23T06:55:16.909Z,118.93
2023-02-23T06:57:44.137Z,113.80
2023-02-23T07:00:15.185Z,118.20
2023-02-23T07:02:42.577Z,126.43
2023-02-23T07:05:09.916Z,112.97
2023-02-23T07:07:37.144Z,114.63
2023-02-23T07:10:04.931Z,111.20
2023-02-23T07:12:32.318Z,109.63
2023-02-23T07:14:59.451Z,119.00
2023-02-23T07:17:26.569Z,111.73
2023-02-23T07:19:53.790Z,108.73
2023-02-23T07:22:22.195Z,121.90
2023-02-23T07:24:49.364Z,118.37
2023-02-23T07:27:16.444Z,116.43
2023-02-23T07:29:43.578Z,115.07
2023-02-23T07:32:10.821Z,115.37
2023-02-23T07:34:38.105Z,120.20
2023-02-23T07:37:05.182Z,116.37
2023-02-23T07:39:32.264Z,112.93
2023-02-23T07:41:59.325Z,116.90
2023-02-23T07:44:26.448Z,109.23
2023-02-23T07:46:53.857Z,119.67
2023-02-23T07:49:20.970Z,119.40
2023-02-23T07:51:48.079Z,120.40
2023-02-23T07:54:15.677Z,110.80
2023-02-23T07:56:43.308Z,111.93
2023-02-23T07:59:11.665Z,113.80
2023-02-23T08:01:38.757Z,109.90
2023-02-23T08:04:06.084Z,111.53
2023-02-23T08:06:33.408Z,104.20
2023-02-23T08:09:01.152Z,117.67
2023-02-23T08:11:31.105Z,104.73
2023-02-23T08:14:00.369Z,99.17
2023-02-23T08:16:31.293Z,112.00
2023-02-23T08:18:58.666Z,113.03
2023-02-23T08:21:25.998Z,104.13
2023-02-23T08:23:53.145Z,99.97
2023-02-23T08:26:20.241Z,97.23
2023-02-23T08:28:47.312Z,99.40
2023-02-23T08:31:16.104Z,102.33
2023-02-23T08:33:43.241Z,96.40
2023-02-23T08:36:10.351Z,99.23
2023-02-23T08:38:37.523Z,97.13
2023-02-23T08:41:05.350Z,91.60
2023-02-23T08:43:32.618Z,96.03
2023-02-23T08:45:59.757Z,98.33
2023-02-23T08:48:27.291Z,101.37
2023-02-23T08:50:57.906Z,106.67
2023-02-23T08:53:25.581Z,100.87
2023-02-23T08:56:02.910Z,96.43
2023-02-23T08:58:31.137Z,98.87
2023-02-23T09:01:00.151Z,107.27
2023-02-23T09:03:28.633Z,104.03
2023-02-23T09:05:56.510Z,110.17
2023-02-23T09:08:25.907Z,102.87
2023-02-23T09:10:53.713Z,96.73
2023-02-23T09:13:20.807Z,104.00
2023-02-23T09:15:48.350Z,96.37
2023-02-23T09:18:15.474Z,98.20
2023-02-23T09:20:45.593Z,104.07
2023-02-23T09:23:13.151Z,97.83
2023-02-23T09:25:43.956Z,97.27
2023-02-23T09:28:19.031Z,98.97
2023-02-23T09:30:48.802Z,97.03
2023-02-23T09:33:17.139Z,92.50
2023-02-23T09:35:44.248Z,92.30
2023-02-23T09:38:11.319Z,91.90
2023-02-23T09:40:49.796Z,87.00
2023-02-23T09:43:31.294Z,84.83
2023-02-23T09:46:04.286Z,76.27
2023-02-23T09:48:31.411Z,81.70
2023-02-23T09:50:58.773Z,79.53
2023-02-23T09:53:38.547Z,80.50
2023-02-23T09:56:16.504Z,88.47
2023-02-23T09:58:44.604Z,84.47
2023-02-23T10:01:23.873Z,90.27
2023-02-23T10:04:03.396Z,86.63
2023-02-23T10:06:30.796Z,83.80
2023-02-23T10:09:14.493Z,89.67
2023-02-23T10:11:56.398Z,86.63
2023-02-23T10:14:38.925Z,87.63
2023-02-23T10:17:08.107Z,90.63
2023-02-23T10:19:38.267Z,85.20
2023-02-23T10:22:07.579Z,86.83
2023-02-23T10:24:37.187Z,86.07
2023-02-23T10:27:10.146Z,83.70
2023-02-23T10:29:41.245Z,79.50
2023-02-23T10:32:16.895Z,76.97
2023-02-23T10:34:45.896Z,79.53
2023-02-23T10:37:13.345Z,74.13
2023-02-23T10:39:41.114Z,76.10
2023-02-23T10:42:13.431Z,73.60
2023-02-23T10:44:43.018Z,74.50
2023-02-23T10:47:14.272Z,73.73
2023-02-23T10:49:43.485Z,62.70
2023-02-23T10:52:15.040Z,65.70
2023-02-23T10:54:44.522Z,62.80
2023-02-23T10:57:16.840Z,68.93
2023-02-23T10:59:58.703Z,58.00
2023-02-23T11:02:30.601Z,64.67
2023-02-23T11:04:58.725Z,66.80
2023-02-23T11:07:29.913Z,60.93
2023-02-23T11:09:57.902Z,58.87
2023-02-23T11:12:36.697Z,55.33
2023-02-23T11:15:21.350Z,49.50
2023-02-23T11:17:57.862Z,51.43
2023-02-23T11:20:39.325Z,53.10
2023-02-23T11:23:27.366Z,50.10
2023-02-23T11:26:00.134Z,46.60
2023-02-23T11:28:31.687Z,52.03
2023-02-23T11:31:02.003Z,47.47
2023-02-23T11:33:35.913Z,49.60
2023-02-23T11:36:17.622Z,45.97
2023-02-23T11:38:46.010Z,42.33
2023-02-23T11:41:21.627Z,51.07
2023-02-23T11:43:50.759Z,41.63
2023-02-23T11:46:19.573Z,40.97
2023-02-23T11:49:04.217Z,42.70
2023-02-23T11:51:33.362Z,38.17
2023-02-23T11:54:01.026Z,38.60
2023-02-23T11:56:32.157Z,35.20
2023-02-23T11:59:02.062Z,37.33
2023-02-23T12:01:37.544Z,36.07
2023-02-23T12:04:04.926Z,38.30
2023-02-23T12:06:36.239Z,39.53
2023-02-23T12:09:06.279Z,41.90
2023-02-23T12:11:42.428Z,44.60
2023-02-23T12:14:09.464Z,38.93
2023-02-23T12:16:40.687Z,45.53
2023-02-23T12:19:23.096Z,46.47
2023-02-23T12:21:50.195Z,41.03
2023-02-23T12:24:26.298Z,36.67
2023-02-23T12:26:56.468Z,42.40
2023-02-23T12:29:30.012Z,40.10
2023-02-23T12:32:04.831Z,40.37
2023-02-23T12:34:42.528Z,36.57
2023-02-23T12:37:29.135Z,38.07
2023-02-23T12:40:03.476Z,31.17
2023-02-23T12:42:41.342Z,32.60
2023-02-23T12:45:14.193Z,36.93
2023-02-23T12:47:45.239Z,32.67
2023-02-23T12:50:14.641Z,32.10
2023-02-23T12:52:44.232Z,32.43
2023-02-23T12:55:12.442Z,29.13
2023-02-23T12:57:49.141Z,30.07
2023-02-23T13:00:30.909Z,28.93
2023-02-23T13:03:16.833Z,27.87
2023-02-23T13:06:01.651Z,29.47
2023-02-23T13:08:42.671Z,29.67
2023-02-23T13:11:12.862Z,27.63
2023-02-23T13:14:02.164Z,33.70
2023-02-23T13:16:44.260Z,30.87
2023-02-23T13:19:21.037Z,32.10
2023-02-23T13:22:06.928Z,29.50
2023-02-23T13:24:40.709Z,30.73
2023-02-23T13:27:07.798Z,28.57
2023-02-23T13:29:34.887Z,29.33
2023-02-23T13:32:03.114Z,30.20
2023-02-23T13:34:39.854Z,33.83
2023-02-23T13:37:07.763Z,30.33
2023-02-23T13:39:37.711Z,34.70
2023-02-23T13:42:16.176Z,30.70
2023-02-23T13:45:01.989Z,33.10
2023-02-23T13:47:29.038Z,33.13
2023-02-23T13:50:21.655Z,34.13
2023-02-23T13:52:48.786Z,33.67
2023-02-23T13:55:32.638Z,36.27
2023-02-23T13:58:13.426Z,36.50
2023-02-23T14:00:40.549Z,41.27
2023-02-23T14:03:09.018Z,35.70
2023-02-23T14:05:43.315Z,37.97
2023-02-23T14:08:21.589Z,35.83
2023-02-23T14:10:48.742Z,40.00
2023-02-23T14:13:15.863Z,35.17
2023-02-23T14:15:49.779Z,39.70
2023-02-23T14:18:25.154Z,42.03
2023-02-23T14:20:56.990Z,39.27
2023-02-23T14:23:24.390Z,41.87
2023-02-23T14:26:09.938Z,43.83
2023-02-23T14:28:39.075Z,43.93
2023-02-23T14:31:16.039Z,42.97
2023-02-23T14:33:43.181Z,35.90
2023-02-23T14:36:22.735Z,38.90
2023-02-23T14:38:52.741Z,48.47
2023-02-23T14:41:27.544Z,36.83
2023-02-23T14:43:55.959Z,37.87
2023-02-23T14:46:24.968Z,43.37
2023-02-23T14:49:15.271Z,39.83
2023-02-23T14:51:44.815Z,37.97
2023-02-23T14:54:23.206Z,46.43
2023-02-23T14:56:51.339Z,46.20
2023-02-23T14:59:26.880Z,42.50
2023-02-23T15:01:55.120Z,46.37
2023-02-23T15:04:27.093Z,46.77
2023-02-23T15:06:56.680Z,43.00
2023-02-23T15:09:30.898Z,40.87
2023-02-23T15:11:58.935Z,44.77
2023-02-23T15:14:28.288Z,42.87
2023-02-23T15:16:56.567Z,44.27
2023-02-23T15:19:32.227Z,43.50
2023-02-23T15:22:01.293Z,44.13
2023-02-23T15:24:31.687Z,46.97
2023-02-23T15:26:59.163Z,47.27
2023-02-23T15:29:30.915Z,38.73
2023-02-23T15:32:14.792Z,42.07
2023-02-23T15:34:42.073Z,40.23
2023-02-23T15:37:31.258Z,36.23
2023-02-23T15:40:03.591Z,45.57
2023-02-23T15:42:42.164Z,43.40
2023-02-23T15:45:17.787Z,42.87
2023-02-23T15:47:44.893Z,40.63
2023-02-23T15:50:30.877Z,36.53
2023-02-23T15:53:03.219Z,36.27
2023-02-23T15:55:35.845Z,39.90
2023-02-23T15:58:13.763Z,37.63
2023-02-23T16:00:42.479Z,36.57
2023-02-23T16:03:22.503Z,39.83
2023-02-23T16:05:56.948Z,34.27
2023-02-23T16:08:25.214Z,37.43
2023-02-23T16:10:57.542Z,34.03
2023-02-23T16:13:24.804Z,34.67
2023-02-23T16:15:54.534Z,35.97
2023-02-23T16:18:35.560Z,35.87
2023-02-23T16:21:03.105Z,42.07
2023-02-23T16:23:34.387Z,40.10
2023-02-23T16:26:10.145Z,42.00
2023-02-23T16:28:41.633Z,35.20
2023-02-23T16:31:13.720Z,34.97
2023-02-23T16:33:54.408Z,35.93
2023-02-23T16:36:23.619Z,32.23
2023-02-23T16:38:58.360Z,35.57
2023-02-23T16:41:26.651Z,32.13
2023-02-23T16:43:55.182Z,31.13
2023-02-23T16:46:24.506Z,39.07
2023-02-23T16:48:52.091Z,55.30
2023-02-23T16:51:20.932Z,46.53
2023-02-23T16:53:48.034Z,47.17
2023-02-23T16:56:17.805Z,41.37
2023-02-23T16:58:46.501Z,35.13
2023-02-23T17:01:14.412Z,33.97
2023-02-23T17:03:52.414Z,31.80
2023-02-23T17:06:20.715Z,34.23
2023-02-23T17:08:57.672Z,30.77
2023-02-23T17:11:25.418Z,33.80
2023-02-23T17:13:53.020Z,34.77
2023-02-23T17:16:20.441Z,43.53
2023-02-23T17:18:48.845Z,41.83
2023-02-23T17:21:22.872Z,29.83
2023-02-23T17:23:51.361Z,37.67
2023-02-23T17:26:27.483Z,39.13
2023-02-23T17:28:54.577Z,36.80
2023-02-23T17:31:24.178Z,36.43
2023-02-23T17:33:53.680Z,42.80
2023-02-23T17:36:20.783Z,41.67
2023-02-23T17:38:47.972Z,38.37
2023-02-23T17:41:19.189Z,39.23
2023-02-23T17:43:46.813Z,41.97
2023-02-23T17:46:14.167Z,35.97
2023-02-23T17:48:44.540Z,36.57
2023-02-23T17:51:12.710Z,36.60
2023-02-23T17:53:40.983Z,38.57
2023-02-23T17:56:08.392Z,37.87
2023-02-23T17:58:35.669Z,36.50
2023-02-23T18:01:04.393Z,34.33
2023-02-23T18:03:32.733Z,35.07
2023-02-23T18:06:01.115Z,34.57
2023-02-23T18:08:28.342Z,38.57
2023-02-23T18:10:55.901Z,40.23
2023-02-23T18:13:23.702Z,37.07
2023-02-23T18:15:51.630Z,35.63
2023-02-23T18:18:18.788Z,38.70
2023-02-23T18:20:56.172Z,36.53
2023-02-23T18:23:23.981Z,41.07
2023-02-23T18:25:51.056Z,44.70
2023-02-23T18:28:18.642Z,41.50
2023-02-23T18:30:46.058Z,43.43
2023-02-23T18:33:13.519Z,45.73
2023-02-23T18:35:47.229Z,38.83
2023-02-23T18:38:14.708Z,37.87
2023-02-23T18:40:42.404Z,38.97
2023-02-23T18:43:10.972Z,42.63
2023-02-23T18:45:38.212Z,50.30
2023-02-23T18:48:10.038Z,38.83
2023-02-23T18:50:37.470Z,49.63
2023-02-23T18:53:05.486Z,41.90
2023-02-23T18:55:32.841Z,40.60
2023-02-23T18:57:59.915Z,38.50
2023-02-23T19:00:27.258Z,46.43
2023-02-23T19:02:54.895Z,45.97
2023-02-23T19:05:22.337Z,49.33
2023-02-23T19:07:49.472Z,25.77
2023-02-23T19:10:19.394Z,23.93
2023-02-23T19:12:46.473Z,21.70
2023-02-23T19:15:13.623Z,24.27
2023-02-23T19:17:40.719Z,39.73
2023-02-23T19:20:13.864Z,16.47
2023-02-23T19:22:41.726Z,15.60
2023-02-23T19:25:11.655Z,19.20
2023-02-23T19:27:39.124Z,15.00
2023-02-23T19:30:09.915Z,19.80
2023-02-23T19:32:39.550Z,17.80
2023-02-23T19:35:08.300Z,18.67
2023-02-23T19:37:35.433Z,15.93
2023-02-23T19:40:05.215Z,14.43
2023-02-23T19:42:32.904Z,17.13
2023-02-23T19:45:00.302Z,22.60
2023-02-23T19:47:27.413Z,16.13
2023-02-23T19:49:54.950Z,17.87
2023-02-23T19:52:23.223Z,18.53
2023-02-23T19:54:50.430Z,16.97
2023-02-23T19:57:17.606Z,18.53
2023-02-23T19:59:44.766Z,19.07
2023-02-23T20:02:11.956Z,36.20
2023-02-23T20:04:39.296Z,27.80
2023-02-23T20:07:07.583Z,19.50
2023-02-23T20:09:34.874Z,22.50
2023-02-23T20:12:02.014Z,21.03
2023-02-23T20:14:29.152Z,19.23
2023-02-23T20:16:56.423Z,20.60
2023-02-23T20:19:24.306Z,24.97
2023-02-23T20:21:51.480Z,14.53
2023-02-23T20:24:19.168Z,18.20
2023-02-23T20:26:49.443Z,22.37
2023-02-23T20:29:19.072Z,19.97
2023-02-23T20:31:51.185Z,18.17
2023-02-23T20:34:22.122Z,23.53
2023-02-23T20:36:50.976Z,22.53
2023-02-23T20:39:19.089Z,19.27
2023-02-23T20:41:53.391Z,24.00
2023-02-23T20:44:21.318Z,20.03
2023-02-23T20:46:48.511Z,25.47
2023-02-23T20:49:18.495Z,19.40
2023-02-23T20:51:47.008Z,25.40
2023-02-23T20:54:15.066Z,14.87
2023-02-23T20:56:42.656Z,27.57
2023-02-23T20:59:11.277Z,23.80
2023-02-23T21:01:42.380Z,24.70
2023-02-23T21:04:09.719Z,15.07
2023-02-23T21:06:36.860Z,29.80
2023-02-23T21:09:12.472Z,29.50
2023-02-23T21:11:40.865Z,22.27
2023-02-23T21:14:10.293Z,25.90
2023-02-23T21:16:40.809Z,30.33
2023-02-23T21:19:08.058Z,23.63
2023-02-23T21:21:46.154Z,17.93
2023-02-23T21:24:14.930Z,19.50
2023-02-23T21:26:42.770Z,23.97
2023-02-23T21:29:11.797Z,23.67
2023-02-23T21:31:39.720Z,13.87
2023-02-23T21:34:07.372Z,26.30
2023-02-23T21:36:34.847Z,29.97
2023-02-23T21:39:01.932Z,26.07
2023-02-23T21:41:29.519Z,25.27
2023-02-23T21:43:56.568Z,26.30
2023-02-23T21:46:23.756Z,18.90
2023-02-23T21:48:50.813Z,18.03
2023-02-23T21:51:18.315Z,18.60
2023-02-23T21:53:46.728Z,22.53
2023-02-23T21:56:15.485Z,27.57
2023-02-23T21:58:48.649Z,22.90
2023-02-23T22:01:21.095Z,22.30
2023-02-23T22:03:48.495Z,14.13
2023-02-23T22:06:17.202Z,19.63
2023-02-23T22:08:44.886Z,22.23
2023-02-23T22:11:17.307Z,19.73
2023-02-23T22:13:48.079Z,27.40
2023-02-23T22:16:16.460Z,21.20
2023-02-23T22:18:44.050Z,20.73
2023-02-23T22:21:12.605Z,21.57
2023-02-23T22:23:50.184Z,22.37
2023-02-23T22:26:17.955Z,24.77
2023-02-23T22:28:45.058Z,22.53
2023-02-23T22:31:13.697Z,23.43
2023-02-23T22:33:42.887Z,26.10
2023-02-23T22:36:12.936Z,21.83
2023-02-23T22:38:40.855Z,24.97
2023-02-23T22:41:11.596Z,24.90
2023-02-23T22:43:39.633Z,23.63
2023-02-23T22:46:07.858Z,28.07
2023-02-23T22:48:35.830Z,21.47
2023-02-23T22:51:03.073Z,29.00
2023-02-23T22:53:30.698Z,22.17
2023-02-23T22:55:57.992Z,27.77
2023-02-23T22:58:29.229Z,23.57
2023-02-23T23:01:06.505Z,17.00
2023-02-23T23:03:41.436Z,18.00
2023-02-23T23:06:10.143Z,21.33
2023-02-23T23:08:39.096Z,19.10
2023-02-23T23:11:11.042Z,18.23
2023-02-23T23:13:38.516Z,31.97
2023-02-23T23:16:16.864Z,26.03
2023-02-23T23:18:56.047Z,23.07
2023-02-23T23:21:24.680Z,14.87
2023-02-23T23:23:52.786Z,29.07
2023-02-23T23:26:20.646Z,23.77
2023-02-23T23:28:49.668Z,17.20
2023-02-23T23:31:22.509Z,22.07
2023-02-23T23:33:51.548Z,19.67
2023-02-23T23:36:19.823Z,18.47
2023-02-23T23:38:47.117Z,24.67
2023-02-23T23:41:14.551Z,17.83
2023-02-23T23:43:48.559Z,22.67
2023-02-23T23:46:23.118Z,20.57
2023-02-23T23:48:54.250Z,21.33
2023-02-23T23:51:27.557Z,20.13
2023-02-23T23:53:55.188Z,28.23
2023-02-23T23:56:22.646Z,25.53
2023-02-23T23:58:50.435Z,20.30
